Time;durP1;ratioP1;P1;durP2;ratioP2;P2;SDS_P1;SDS_P2;PMS_P1;PMS_P2;Temp;Humidity;BMP_temperature;BMP_pressure;BME280_temperature;BME280_humidity;BME280_pressure;Samples;Min_cycle;Max_cycle;Signal;HPM_P1;HPM_P2
2021/06/26 00:00:52;;;;;;;28.10;15.95;;;;;;;;;;5085318;28;20173;-66
2021/06/26 00:03:20;;;;;;;25.27;15.23;;;;;;;;;;5063184;28;20021;-66
2021/06/26 00:05:46;;;;;;;26.55;15.70;;;;;;;;;;5073870;22;20486;-91
2021/06/26 00:08:11;;;;;;;26.13;16.90;;;;;;;;;;5060296;28;20021;-92
2021/06/26 00:10:37;;;;;;;25.00;16.02;;;;;;;;;;5061586;28;20498;-91
2021/06/26 00:13:02;;;;;;;31.65;15.55;;;;;;;;;;5066848;28;20023;-91
2021/06/26 00:15:28;;;;;;;30.63;16.08;;;;;;;;;;5065457;28;20111;-91
2021/06/26 00:17:53;;;;;;;23.58;15.93;;;;;;;;;;5080022;28;20051;-92
2021/06/26 00:20:18;;;;;;;28.08;17.33;;;;;;;;;;5068627;28;20035;-91
2021/06/26 00:22:44;;;;;;;27.75;17.50;;;;;;;;;;5063844;28;20040;-91
2021/06/26 00:25:09;;;;;;;28.73;16.98;;;;;;;;;;5072410;28;20020;-92
2021/06/26 00:27:35;;;;;;;27.55;17.38;;;;;;;;;;5061709;28;20119;-92
2021/06/26 00:30:00;;;;;;;32.80;17.73;;;;;;;;;;5061832;28;20040;-91
2021/06/26 00:32:26;;;;;;;31.23;17.58;;;;;;;;;;5060857;28;20028;-92
2021/06/26 00:34:51;;;;;;;27.85;16.42;;;;;;;;;;5075748;28;20020;-90
2021/06/26 00:37:17;;;;;;;29.05;17.98;;;;;;;;;;5068026;28;20499;-91
2021/06/26 00:39:42;;;;;;;24.92;16.50;;;;;;;;;;5058719;28;20042;-92
2021/06/26 00:42:07;;;;;;;24.90;15.63;;;;;;;;;;5060830;28;20016;-90
2021/06/26 00:44:33;;;;;;;33.53;16.95;;;;;;;;;;5065458;28;20055;-91
2021/06/26 00:47:00;;;;;;;24.63;16.13;;;;;;;;;;5069697;28;20047;-91
2021/06/26 00:49:25;;;;;;;24.83;16.10;;;;;;;;;;5070432;28;20028;-91
2021/06/26 00:51:51;;;;;;;32.47;17.20;;;;;;;;;;5080497;28;20085;-91
2021/06/26 00:54:16;;;;;;;28.13;17.80;;;;;;;;;;5075705;28;20074;-91
2021/06/26 00:56:41;;;;;;;32.85;18.55;;;;;;;;;;5068098;28;20224;-90
2021/06/26 00:59:07;;;;;;;26.52;16.77;;;;;;;;;;5061381;28;20084;-91
2021/06/26 01:01:32;;;;;;;31.25;17.33;;;;;;;;;;5069308;28;20035;-92
2021/06/26 01:03:58;;;;;;;33.95;17.65;;;;;;;;;;5070294;28;20435;-92
2021/06/26 01:06:23;;;;;;;31.65;17.73;;;;;;;;;;5078018;28;20084;-91
2021/06/26 01:08:48;;;;;;;33.80;17.95;;;;;;;;;;5084622;28;20079;-91
2021/06/26 01:11:14;;;;;;;30.52;18.83;;;;;;;;;;5080111;28;20028;-91
2021/06/26 01:13:40;;;;;;;30.88;18.13;;;;;;;;;;5069311;28;20039;-91
2021/06/26 01:16:05;;;;;;;30.42;19.17;;;;;;;;;;5068633;28;20017;-92
2021/06/26 01:18:31;;;;;;;31.85;18.42;;;;;;;;;;5060262;28;20028;-91
2021/06/26 01:20:56;;;;;;;29.60;18.25;;;;;;;;;;5060506;28;20144;-91
2021/06/26 01:23:24;;;;;;;30.02;17.98;;;;;;;;;;5060572;28;20124;-91
2021/06/26 01:25:49;;;;;;;29.80;17.20;;;;;;;;;;5067400;28;20028;-92
2021/06/26 01:28:15;;;;;;;32.42;17.75;;;;;;;;;;5073666;28;20032;-91
2021/06/26 01:30:41;;;;;;;30.35;16.60;;;;;;;;;;5060263;28;20117;-93
2021/06/26 01:33:06;;;;;;;31.98;17.90;;;;;;;;;;5044674;28;20021;-93
2021/06/26 01:35:32;;;;;;;29.42;17.40;;;;;;;;;;5064927;28;20074;-92
2021/06/26 01:37:58;;;;;;;27.67;17.08;;;;;;;;;;5073414;28;20021;-92
2021/06/26 01:40:24;;;;;;;26.73;16.77;;;;;;;;;;5063791;28;20025;-91
2021/06/26 01:42:50;;;;;;;24.88;17.02;;;;;;;;;;5064300;28;20031;-92
2021/06/26 01:45:15;;;;;;;29.05;17.95;;;;;;;;;;5078731;28;20020;-92
2021/06/26 01:47:45;;;;;;;29.35;18.08;;;;;;;;;;5080370;28;20016;-92
2021/06/26 01:50:10;;;;;;;33.15;18.55;;;;;;;;;;5073758;28;20107;-91
2021/06/26 01:52:36;;;;;;;29.10;17.70;;;;;;;;;;5071773;28;20040;-92
2021/06/26 01:55:02;;;;;;;32.30;18.75;;;;;;;;;;5082823;28;20024;-92
2021/06/26 01:57:27;;;;;;;29.95;18.13;;;;;;;;;;5064294;28;20047;-91
2021/06/26 01:59:55;;;;;;;33.72;18.77;;;;;;;;;;5064190;28;20100;-92
2021/06/26 02:02:21;;;;;;;29.52;18.38;;;;;;;;;;5073225;28;20028;-92
2021/06/26 02:04:46;;;;;;;27.30;17.00;;;;;;;;;;5073524;28;20053;-91
2021/06/26 02:07:11;;;;;;;25.23;16.45;;;;;;;;;;5071276;28;20065;-91
2021/06/26 02:09:37;;;;;;;27.45;17.25;;;;;;;;;;5061273;28;20408;-92
2021/06/26 02:12:02;;;;;;;28.83;18.05;;;;;;;;;;5060373;28;20044;-92
2021/06/26 02:14:27;;;;;;;26.23;17.88;;;;;;;;;;5061917;28;20056;-91
2021/06/26 02:16:52;;;;;;;29.15;17.85;;;;;;;;;;5061147;28;20051;-91
2021/06/26 02:19:18;;;;;;;32.13;18.20;;;;;;;;;;5071533;28;20012;-92
2021/06/26 02:21:43;;;;;;;30.33;18.88;;;;;;;;;;5069156;28;20410;-90
2021/06/26 02:24:09;;;;;;;32.70;18.27;;;;;;;;;;5062622;28;20028;-91
2021/06/26 02:26:34;;;;;;;34.05;19.70;;;;;;;;;;5065962;28;20027;-91
2021/06/26 02:28:59;;;;;;;30.00;18.65;;;;;;;;;;5061311;28;20070;-92
2021/06/26 02:31:25;;;;;;;29.75;19.15;;;;;;;;;;5060375;28;20035;-91
2021/06/26 02:33:50;;;;;;;28.17;17.98;;;;;;;;;;5078189;28;20016;-92
2021/06/26 02:36:16;;;;;;;29.17;16.73;;;;;;;;;;5065073;28;20028;-92
2021/06/26 02:38:41;;;;;;;31.30;19.35;;;;;;;;;;5082599;28;20111;-91
2021/06/26 02:41:06;;;;;;;26.42;18.70;;;;;;;;;;5065990;28;20039;-92
2021/06/26 02:43:31;;;;;;;30.65;18.05;;;;;;;;;;5081525;28;20033;-90
2021/06/26 02:45:57;;;;;;;32.22;19.70;;;;;;;;;;5067963;28;20023;-91
2021/06/26 02:48:22;;;;;;;31.73;19.10;;;;;;;;;;5066341;28;20511;-91
2021/06/26 02:50:49;;;;;;;28.42;18.50;;;;;;;;;;5076001;28;20245;-90
2021/06/26 02:53:14;;;;;;;36.13;18.27;;;;;;;;;;5081264;28;20024;-91
2021/06/26 02:55:39;;;;;;;32.35;20.13;;;;;;;;;;5064170;28;20392;-91
2021/06/26 02:58:04;;;;;;;33.72;19.55;;;;;;;;;;5076772;28;20040;-91
2021/06/26 03:00:30;;;;;;;31.67;19.08;;;;;;;;;;5060983;28;20092;-91
2021/06/26 03:02:55;;;;;;;33.70;20.10;;;;;;;;;;5061320;28;20028;-92
2021/06/26 03:05:20;;;;;;;32.30;18.33;;;;;;;;;;5063111;28;20021;-91
2021/06/26 03:07:50;;;;;;;29.80;20.05;;;;;;;;;;5075260;28;20028;-92
2021/06/26 03:10:15;;;;;;;35.30;19.83;;;;;;;;;;5065527;28;20024;-91
2021/06/26 03:12:40;;;;;;;38.55;21.98;;;;;;;;;;5062748;28;20043;-90
2021/06/26 03:15:06;;;;;;;32.22;19.90;;;;;;;;;;5078394;28;20020;-90
2021/06/26 03:17:31;;;;;;;34.95;21.23;;;;;;;;;;5067529;28;20096;-90
2021/06/26 03:19:56;;;;;;;32.33;19.58;;;;;;;;;;5079198;28;20077;-89
2021/06/26 03:22:22;;;;;;;35.55;20.55;;;;;;;;;;5071127;28;20118;-92
2021/06/26 03:24:47;;;;;;;32.95;19.73;;;;;;;;;;5068975;28;20080;-91
2021/06/26 03:27:14;;;;;;;29.60;19.13;;;;;;;;;;5069358;28;20025;-92
2021/06/26 03:29:39;;;;;;;37.83;20.77;;;;;;;;;;5078697;28;20034;-90
2021/06/26 03:32:05;;;;;;;36.50;20.55;;;;;;;;;;5067158;28;20017;-90
2021/06/26 03:34:31;;;;;;;37.83;20.80;;;;;;;;;;5069114;28;20058;-93
2021/06/26 03:36:56;;;;;;;35.80;21.48;;;;;;;;;;5076166;28;20118;-91
2021/06/26 03:39:36;;;;;;;37.65;21.45;;;;;;;;;;5067328;28;20013;-90
2021/06/26 03:42:02;;;;;;;34.67;21.63;;;;;;;;;;5060048;28;20095;-91
2021/06/26 03:44:30;;;;;;;34.58;19.52;;;;;;;;;;5070876;28;20085;-91
2021/06/26 03:46:59;;;;;;;35.65;21.98;;;;;;;;;;5061351;28;20203;-90
2021/06/26 03:49:24;;;;;;;38.92;22.45;;;;;;;;;;5063914;28;20048;-91
2021/06/26 03:51:49;;;;;;;39.53;21.23;;;;;;;;;;5061795;28;20032;-91
2021/06/26 03:54:15;;;;;;;37.58;22.83;;;;;;;;;;5074308;28;20027;-92
2021/06/26 03:56:40;;;;;;;36.33;22.30;;;;;;;;;;5059684;28;20032;-92
2021/06/26 03:59:05;;;;;;;35.10;21.83;;;;;;;;;;5067380;28;20107;-91
2021/06/26 04:01:30;;;;;;;43.90;22.30;;;;;;;;;;5074344;28;20113;-92
2021/06/26 04:03:56;;;;;;;40.88;22.33;;;;;;;;;;5085006;28;20085;-92
2021/06/26 04:06:21;;;;;;;36.95;22.10;;;;;;;;;;5074130;28;20028;-91
2021/06/26 04:08:47;;;;;;;34.60;21.10;;;;;;;;;;5069730;28;20032;-91
2021/06/26 04:11:12;;;;;;;33.63;21.95;;;;;;;;;;5065014;28;20029;-92
2021/06/26 04:13:37;;;;;;;36.40;22.98;;;;;;;;;;5060648;28;20503;-91
2021/06/26 04:16:04;;;;;;;34.55;21.25;;;;;;;;;;5075732;28;20012;-91
2021/06/26 04:18:29;;;;;;;33.13;20.48;;;;;;;;;;5080271;28;20188;-91
2021/06/26 04:20:54;;;;;;;38.95;21.67;;;;;;;;;;5069088;28;20024;-91
2021/06/26 04:23:20;;;;;;;32.65;20.60;;;;;;;;;;5067635;28;20088;-90
2021/06/26 04:25:46;;;;;;;36.33;21.50;;;;;;;;;;5082162;28;20048;-91
2021/06/26 04:28:12;;;;;;;34.17;20.55;;;;;;;;;;5072100;28;20038;-91
2021/06/26 04:30:37;;;;;;;31.02;20.65;;;;;;;;;;5068082;28;20087;-93
2021/06/26 04:33:03;;;;;;;37.58;22.88;;;;;;;;;;5094173;28;20114;-92
2021/06/26 04:35:29;;;;;;;36.45;22.65;;;;;;;;;;5064585;28;20165;-92
2021/06/26 04:37:55;;;;;;;37.22;22.10;;;;;;;;;;5069050;28;20460;-93
2021/06/26 04:40:20;;;;;;;43.63;23.77;;;;;;;;;;5059284;28;20078;-91
2021/06/26 04:42:48;;;;;;;33.60;21.02;;;;;;;;;;5067691;28;20043;-91
2021/06/26 04:45:14;;;;;;;35.45;20.88;;;;;;;;;;5070293;28;20029;-92
2021/06/26 04:47:41;;;;;;;34.78;21.75;;;;;;;;;;5075821;28;20024;-92
2021/06/26 04:50:07;;;;;;;42.08;21.17;;;;;;;;;;5058994;28;20488;-91
2021/06/26 04:52:40;;;;;;;30.70;19.90;;;;;;;;;;5054555;28;20048;-92
2021/06/26 04:55:06;;;;;;;34.08;19.65;;;;;;;;;;5069760;28;20036;-92
2021/06/26 04:57:31;;;;;;;33.10;18.77;;;;;;;;;;5074555;28;20023;-91
2021/06/26 04:59:59;;;;;;;33.90;18.48;;;;;;;;;;5075136;28;20032;-91
2021/06/26 05:02:24;;;;;;;27.58;17.63;;;;;;;;;;5060844;28;20024;-91
2021/06/26 05:04:50;;;;;;;27.85;18.35;;;;;;;;;;5069872;28;20027;-90
2021/06/26 05:07:15;;;;;;;26.27;17.80;;;;;;;;;;5061181;28;20467;-91
2021/06/26 05:09:41;;;;;;;24.88;16.45;;;;;;;;;;5093802;28;20017;-91
2021/06/26 05:12:06;;;;;;;28.05;17.48;;;;;;;;;;5065128;28;20020;-94
2021/06/26 05:14:32;;;;;;;31.42;17.80;;;;;;;;;;5067603;28;20032;-93
2021/06/26 05:16:58;;;;;;;25.90;15.75;;;;;;;;;;5063662;28;20086;-91
2021/06/26 05:19:23;;;;;;;25.55;15.75;;;;;;;;;;5060739;28;20024;-91
2021/06/26 05:21:48;;;;;;;24.05;15.38;;;;;;;;;;5060496;28;20020;-90
2021/06/26 05:24:14;;;;;;;23.95;15.48;;;;;;;;;;5073085;28;20028;-92
2021/06/26 05:26:39;;;;;;;22.83;15.25;;;;;;;;;;5064147;28;20077;-91
2021/06/26 05:29:07;;;;;;;25.08;14.95;;;;;;;;;;5064736;28;20055;-92
2021/06/26 05:31:32;;;;;;;28.00;15.93;;;;;;;;;;5051468;28;20033;-92
2021/06/26 05:33:58;;;;;;;29.58;15.02;;;;;;;;;;5058113;28;20017;-92
2021/06/26 05:36:24;;;;;;;21.20;14.52;;;;;;;;;;5061428;28;20059;-92
2021/06/26 05:38:50;;;;;;;20.77;14.20;;;;;;;;;;5069485;28;20039;-92
2021/06/26 05:41:15;;;;;;;28.38;14.98;;;;;;;;;;5074085;28;20031;-93
2021/06/26 05:43:41;;;;;;;24.73;14.18;;;;;;;;;;5064323;28;20111;-93
2021/06/26 05:46:10;;;;;;;25.42;14.77;;;;;;;;;;5073774;28;20024;-92
2021/06/26 05:48:36;;;;;;;22.85;15.25;;;;;;;;;;5057494;28;20033;-92
2021/06/26 05:51:01;;;;;;;22.73;14.07;;;;;;;;;;5053765;28;20076;-92
2021/06/26 05:53:26;;;;;;;23.40;14.60;;;;;;;;;;5090878;22;20463;-67
2021/06/26 05:55:58;;;;;;;21.80;13.97;;;;;;;;;;5073536;28;20494;-67
2021/06/26 05:58:33;;;;;;;17.67;12.80;;;;;;;;;;5057797;28;20608;-68
2021/06/26 06:01:02;;;;;;;29.10;14.25;;;;;;;;;;5067596;28;20020;-67
2021/06/26 06:03:27;;;;;;;21.20;14.45;;;;;;;;;;5060897;28;20029;-66
2021/06/26 06:05:53;;;;;;;24.13;14.70;;;;;;;;;;5058188;22;20695;-85
2021/06/26 06:08:19;;;;;;;21.30;13.20;;;;;;;;;;5040584;28;20333;-85
2021/06/26 06:10:44;;;;;;;29.30;16.35;;;;;;;;;;5030293;28;20283;-86
2021/06/26 06:13:13;;;;;;;24.98;13.30;;;;;;;;;;5041404;28;20476;-86
2021/06/26 06:15:39;;;;;;;25.00;14.10;;;;;;;;;;5049495;28;20020;-85
2021/06/26 06:18:04;;;;;;;22.65;14.93;;;;;;;;;;5048807;28;20471;-88
2021/06/26 06:20:32;;;;;;;28.92;15.75;;;;;;;;;;5048127;28;20089;-86
2021/06/26 06:22:57;;;;;;;32.60;14.13;;;;;;;;;;5045797;28;20024;-85
2021/06/26 06:25:22;;;;;;;32.70;14.23;;;;;;;;;;5046406;28;20032;-86
2021/06/26 06:27:51;;;;;;;22.90;13.23;;;;;;;;;;5054751;28;20251;-87
2021/06/26 06:30:19;;;;;;;29.30;14.80;;;;;;;;;;5072428;28;20778;-87
2021/06/26 06:32:44;;;;;;;29.00;16.08;;;;;;;;;;5042074;28;20025;-84
2021/06/26 06:35:10;;;;;;;30.50;15.38;;;;;;;;;;5055201;28;20070;-85
2021/06/26 06:37:36;;;;;;;28.85;14.95;;;;;;;;;;5061550;28;20020;-87
2021/06/26 06:40:01;;;;;;;30.13;14.43;;;;;;;;;;5055095;28;20088;-86
2021/06/26 06:42:26;;;;;;;32.95;16.35;;;;;;;;;;5058016;28;20016;-86
2021/06/26 06:44:51;;;;;;;28.57;12.03;;;;;;;;;;5055080;28;20020;-86
2021/06/26 06:47:17;;;;;;;28.42;16.50;;;;;;;;;;5074501;28;20271;-86
2021/06/26 06:49:42;;;;;;;31.27;15.23;;;;;;;;;;5054050;28;20029;-87
2021/06/26 06:52:07;;;;;;;27.27;17.48;;;;;;;;;;5052723;28;20362;-86
2021/06/26 06:54:32;;;;;;;30.95;16.75;;;;;;;;;;5071614;28;20036;-86
2021/06/26 06:56:58;;;;;;;26.85;16.95;;;;;;;;;;5054612;28;20079;-86
2021/06/26 06:59:23;;;;;;;33.72;18.30;;;;;;;;;;5052474;28;20063;-86
2021/06/26 07:01:48;;;;;;;24.60;17.08;;;;;;;;;;5052346;28;20551;-87
2021/06/26 07:04:13;;;;;;;32.42;15.25;;;;;;;;;;5051349;28;20526;-84
2021/06/26 07:06:41;;;;;;;34.17;15.82;;;;;;;;;;5051090;28;20262;-87
2021/06/26 07:09:07;;;;;;;15.48;7.80;;;;;;;;;;5044765;28;20021;-87
2021/06/26 07:11:32;;;;;;;33.13;18.75;;;;;;;;;;5058170;28;20021;-87
2021/06/26 07:14:06;;;;;;;34.33;17.87;;;;;;;;;;5049266;28;20016;-87
2021/06/26 07:16:35;;;;;;;34.25;18.00;;;;;;;;;;5047437;28;20275;-87
2021/06/26 07:19:00;;;;;;;37.15;17.83;;;;;;;;;;5064158;28;20047;-88
2021/06/26 07:21:25;;;;;;;36.35;16.80;;;;;;;;;;5050153;28;20025;-87
2021/06/26 07:23:54;;;;;;;28.60;17.80;;;;;;;;;;5051026;28;20036;-86
2021/06/26 07:26:22;;;;;;;28.48;16.05;;;;;;;;;;5049411;28;20028;-87
2021/06/26 07:28:47;;;;;;;28.45;17.42;;;;;;;;;;5047463;28;20169;-86
2021/06/26 07:31:13;;;;;;;22.35;12.15;;;;;;;;;;5071469;28;20496;-86
2021/06/26 07:33:39;;;;;;;31.42;17.90;;;;;;;;;;5054328;28;20025;-86
2021/06/26 07:36:07;;;;;;;29.10;18.60;;;;;;;;;;5072542;28;20043;-86
2021/06/26 07:38:32;;;;;;;35.75;19.33;;;;;;;;;;5072350;28;20263;-87
2021/06/26 07:40:57;;;;;;;39.33;18.23;;;;;;;;;;5078070;28;20028;-86
2021/06/26 07:43:23;;;;;;;32.60;19.37;;;;;;;;;;5056835;28;20781;-86
2021/06/26 07:45:48;;;;;;;28.27;13.65;;;;;;;;;;5054718;28;20266;-86
2021/06/26 07:48:13;;;;;;;23.92;12.73;;;;;;;;;;5051360;28;20045;-86
2021/06/26 07:50:38;;;;;;;34.35;16.10;;;;;;;;;;5063122;28;20024;-86
2021/06/26 07:53:04;;;;;;;25.60;14.93;;;;;;;;;;5055949;28;20021;-86
2021/06/26 07:55:31;;;;;;;29.73;15.50;;;;;;;;;;5079745;28;20353;-87
2021/06/26 07:57:56;;;;;;;23.48;15.43;;;;;;;;;;5074541;28;20101;-86
2021/06/26 08:00:21;;;;;;;27.70;16.10;;;;;;;;;;5053962;28;20475;-86
2021/06/26 08:02:46;;;;;;;24.27;16.47;;;;;;;;;;5052680;28;20025;-87
2021/06/26 08:05:14;;;;;;;28.00;16.58;;;;;;;;;;5070232;28;20262;-87
2021/06/26 08:07:39;;;;;;;28.75;17.83;;;;;;;;;;5070661;28;20459;-88
2021/06/26 08:10:05;;;;;;;24.77;15.93;;;;;;;;;;5072183;28;20060;-87
2021/06/26 08:12:31;;;;;;;26.25;13.82;;;;;;;;;;5052509;28;20138;-88
2021/06/26 08:14:56;;;;;;;28.98;16.05;;;;;;;;;;5050065;28;20012;-86
2021/06/26 08:17:21;;;;;;;26.60;16.30;;;;;;;;;;5070619;28;20024;-86
2021/06/26 08:19:47;;;;;;;29.40;14.03;;;;;;;;;;5058705;28;20035;-87
2021/06/26 08:22:12;;;;;;;28.47;15.40;;;;;;;;;;5055954;28;20268;-86
2021/06/26 08:24:37;;;;;;;25.60;14.65;;;;;;;;;;5055102;28;20251;-86
2021/06/26 08:27:03;;;;;;;26.65;16.45;;;;;;;;;;5055409;28;20031;-87
2021/06/26 08:29:28;;;;;;;24.10;16.30;;;;;;;;;;5070615;28;20024;-88
2021/06/26 08:31:53;;;;;;;23.67;16.33;;;;;;;;;;5070933;28;20107;-88
2021/06/26 08:34:18;;;;;;;29.42;16.67;;;;;;;;;;5048911;28;20259;-88
2021/06/26 08:36:47;;;;;;;30.15;16.65;;;;;;;;;;5038370;28;20123;-88
2021/06/26 08:39:12;;;;;;;24.42;13.15;;;;;;;;;;5054849;28;20016;-89
2021/06/26 08:41:43;;;;;;;26.13;12.73;;;;;;;;;;5063334;28;20025;-86
2021/06/26 08:44:11;;;;;;;26.95;16.55;;;;;;;;;;5071233;28;20301;-88
2021/06/26 08:46:47;;;;;;;25.67;13.95;;;;;;;;;;5054827;28;20027;-87
2021/06/26 08:49:12;;;;;;;26.30;16.63;;;;;;;;;;5053021;28;20033;-89
2021/06/26 08:51:38;;;;;;;25.65;15.35;;;;;;;;;;5054460;28;20020;-87
2021/06/26 08:54:07;;;;;;;23.95;16.20;;;;;;;;;;5038764;28;20029;-87
2021/06/26 08:56:32;;;;;;;29.08;17.83;;;;;;;;;;5053434;28;20024;-88
2021/06/26 08:58:57;;;;;;;35.50;17.47;;;;;;;;;;5070808;28;20039;-87
2021/06/26 09:01:22;;;;;;;24.17;15.43;;;;;;;;;;5070824;28;20275;-87
2021/06/26 09:03:50;;;;;;;25.20;15.40;;;;;;;;;;5067531;28;20274;-87
2021/06/26 09:06:15;;;;;;;30.52;18.15;;;;;;;;;;5056507;28;20837;-86
2021/06/26 09:08:47;;;;;;;26.63;17.07;;;;;;;;;;5066306;28;20070;-88
2021/06/26 09:11:16;;;;;;;32.97;18.48;;;;;;;;;;5072174;28;20789;-88
2021/06/26 09:13:42;;;;;;;22.63;13.93;;;;;;;;;;5051743;28;20025;-90
2021/06/26 09:16:11;;;;;;;30.10;14.65;;;;;;;;;;5045532;28;20085;-88
2021/06/26 09:18:44;;;;;;;23.05;13.15;;;;;;;;;;5045437;28;20522;-86
2021/06/26 09:21:18;;;;;;;26.90;18.15;;;;;;;;;;5063635;28;20051;-87
2021/06/26 09:23:43;;;;;;;26.23;16.48;;;;;;;;;;5046070;28;20032;-88
2021/06/26 09:26:10;;;;;;;28.60;16.63;;;;;;;;;;5057044;28;20082;-88
2021/06/26 09:28:36;;;;;;;15.93;9.23;;;;;;;;;;5068473;28;20353;-88
2021/06/26 09:31:02;;;;;;;29.13;15.82;;;;;;;;;;5070360;28;20033;-87
2021/06/26 09:33:27;;;;;;;18.05;13.93;;;;;;;;;;5070556;28;20009;-88
2021/06/26 09:36:00;;;;;;;18.38;14.30;;;;;;;;;;5052117;28;20749;-88
2021/06/26 09:38:26;;;;;;;21.95;14.73;;;;;;;;;;5048304;28;20008;-88
2021/06/26 09:40:52;;;;;;;24.88;14.63;;;;;;;;;;5040709;28;20031;-88
2021/06/26 09:43:30;;;;;;;18.40;13.10;;;;;;;;;;5047302;28;20020;-90
2021/06/26 09:46:24;;;;;;;21.67;12.63;;;;;;;;;;5070860;28;20484;-88
2021/06/26 09:48:50;;;;;;;25.77;13.02;;;;;;;;;;5046040;28;20036;-88
2021/06/26 09:51:19;;;;;;;30.75;14.65;;;;;;;;;;5068069;28;20039;-88
2021/06/26 09:53:52;;;;;;;19.53;11.63;;;;;;;;;;5037640;28;20021;-87
2021/06/26 09:56:17;;;;;;;19.00;10.63;;;;;;;;;;5050390;28;20025;-89
2021/06/26 09:59:08;;;;;;;20.35;11.85;;;;;;;;;;5073915;28;20492;-90
2021/06/26 10:01:36;;;;;;;19.77;11.40;;;;;;;;;;5050027;28;20044;-89
2021/06/26 10:04:02;;;;;;;18.33;10.55;;;;;;;;;;5048714;28;20021;-90
2021/06/26 10:06:28;;;;;;;18.23;10.65;;;;;;;;;;5045422;28;20020;-89
2021/06/26 10:08:53;;;;;;;12.95;9.38;;;;;;;;;;5054482;28;20032;-89
2021/06/26 10:11:18;;;;;;;14.85;6.43;;;;;;;;;;5054840;28;20035;-88
2021/06/26 10:13:44;;;;;;;9.93;7.35;;;;;;;;;;5055135;28;20023;-90
2021/06/26 10:16:10;;;;;;;10.73;7.65;;;;;;;;;;5055472;28;20020;-88
2021/06/26 10:18:35;;;;;;;10.73;7.60;;;;;;;;;;5053848;28;20476;-89
2021/06/26 10:21:01;;;;;;;10.23;7.22;;;;;;;;;;5052409;28;20035;-88
2021/06/26 10:23:30;;;;;;;14.18;7.47;;;;;;;;;;5051102;28;20369;-89
2021/06/26 10:25:58;;;;;;;11.48;7.35;;;;;;;;;;5072278;28;20032;-89
2021/06/26 10:28:23;;;;;;;12.55;6.28;;;;;;;;;;5037353;28;20046;-89
2021/06/26 10:31:06;;;;;;;10.93;6.55;;;;;;;;;;5052985;28;20430;-90
2021/06/26 10:33:31;;;;;;;12.68;8.70;;;;;;;;;;5060751;28;20088;-88
2021/06/26 10:35:58;;;;;;;13.17;7.73;;;;;;;;;;5053889;28;20058;-90
2021/06/26 10:38:27;;;;;;;10.45;8.02;;;;;;;;;;5050228;28;20297;-89
2021/06/26 10:40:53;;;;;;;14.00;8.88;;;;;;;;;;5042136;28;20369;-89
2021/06/26 10:43:20;;;;;;;14.75;8.00;;;;;;;;;;5072235;28;20052;-89
2021/06/26 10:45:45;;;;;;;13.65;7.78;;;;;;;;;;5053219;28;20071;-88
2021/06/26 10:48:21;;;;;;;13.55;8.18;;;;;;;;;;5063226;28;20477;-88
2021/06/26 10:50:48;;;;;;;14.40;8.85;;;;;;;;;;5044353;28;20547;-87
2021/06/26 10:53:43;;;;;;;15.77;8.02;;;;;;;;;;5068231;28;20016;-89
2021/06/26 10:56:13;;;;;;;11.02;7.93;;;;;;;;;;5043458;28;20039;-90
2021/06/26 10:58:39;;;;;;;10.70;7.25;;;;;;;;;;5056562;28;20024;-86
2021/06/26 11:01:16;;;;;;;9.30;7.15;;;;;;;;;;5053090;28;20499;-88
2021/06/26 11:03:42;;;;;;;9.70;7.10;;;;;;;;;;5045866;28;20338;-87
2021/06/26 11:06:17;;;;;;;10.60;6.80;;;;;;;;;;5048085;28;20031;-88
2021/06/26 11:08:52;;;;;;;13.05;7.50;;;;;;;;;;5051420;28;20543;-87
2021/06/26 11:11:26;;;;;;;10.85;7.50;;;;;;;;;;5043029;28;20052;-87
2021/06/26 11:13:51;;;;;;;11.63;6.68;;;;;;;;;;5053742;28;20668;-88
2021/06/26 11:16:16;;;;;;;10.15;6.35;;;;;;;;;;5051013;28;20017;-89
2021/06/26 11:18:42;;;;;;;17.77;7.13;;;;;;;;;;5049329;28;20052;-90
2021/06/26 11:21:07;;;;;;;9.65;6.43;;;;;;;;;;5066379;28;20385;-87
2021/06/26 11:23:32;;;;;;;10.83;7.03;;;;;;;;;;5071250;28;20075;-91
2021/06/26 11:26:01;;;;;;;7.30;4.67;;;;;;;;;;5069936;28;20017;-88
2021/06/26 11:28:26;;;;;;;10.43;6.20;;;;;;;;;;5068363;28;20666;-88
2021/06/26 11:31:00;;;;;;;7.50;5.32;;;;;;;;;;5053272;28;20095;-89
2021/06/26 11:33:35;;;;;;;15.57;6.05;;;;;;;;;;5050981;28;20040;-89
2021/06/26 11:36:01;;;;;;;12.45;5.80;;;;;;;;;;5068420;28;20096;-89
2021/06/26 11:38:27;;;;;;;9.18;6.70;;;;;;;;;;5050547;28;20051;-89
2021/06/26 11:41:01;;;;;;;9.75;5.97;;;;;;;;;;5060123;28;20024;-88
2021/06/26 11:43:27;;;;;;;11.68;6.32;;;;;;;;;;5053508;28;20118;-88
2021/06/26 11:45:52;;;;;;;8.82;5.63;;;;;;;;;;5068077;28;20058;-88
2021/06/26 11:48:18;;;;;;;10.83;6.10;;;;;;;;;;5067113;28;20017;-88
2021/06/26 11:50:55;;;;;;;8.63;5.18;;;;;;;;;;5053478;28;20286;-87
2021/06/26 11:53:30;;;;;;;7.28;5.60;;;;;;;;;;5064277;22;20019;-72
2021/06/26 11:55:59;;;;;;;12.38;6.45;;;;;;;;;;5005456;28;20022;-71
2021/06/26 11:58:44;;;;;;;13.73;6.60;;;;;;;;;;5011175;28;20378;-71
2021/06/26 12:01:10;;;;;;;8.93;5.78;;;;;;;;;;4999134;28;20265;-70
2021/06/26 12:03:36;;;;;;;11.85;5.90;;;;;;;;;;5003878;28;20493;-70
2021/06/26 12:06:05;;;;;;;7.68;5.68;;;;;;;;;;4997481;28;20030;-71
2021/06/26 12:08:31;;;;;;;11.13;5.70;;;;;;;;;;4992200;28;20015;-70
2021/06/26 12:10:57;;;;;;;6.90;5.75;;;;;;;;;;4995320;28;20046;-71
2021/06/26 12:13:22;;;;;;;10.48;5.85;;;;;;;;;;4991573;28;20022;-71
2021/06/26 12:15:47;;;;;;;6.50;4.93;;;;;;;;;;4988999;28;20379;-71
2021/06/26 12:18:13;;;;;;;8.80;5.75;;;;;;;;;;4992657;28;20324;-72
2021/06/26 12:20:38;;;;;;;9.60;4.80;;;;;;;;;;4992111;28;20026;-72
2021/06/26 12:23:05;;;;;;;10.10;6.05;;;;;;;;;;4995942;28;20650;-70
2021/06/26 12:25:34;;;;;;;5.57;4.90;;;;;;;;;;4991556;28;20023;-71
2021/06/26 12:28:00;;;;;;;6.40;5.40;;;;;;;;;;4995299;28;20113;-71
2021/06/26 12:30:25;;;;;;;6.18;4.47;;;;;;;;;;4994564;28;20505;-71
2021/06/26 12:32:50;;;;;;;9.47;4.83;;;;;;;;;;4996180;28;20042;-72
2021/06/26 12:35:16;;;;;;;6.47;3.90;;;;;;;;;;5001072;28;20315;-71
2021/06/26 12:37:45;;;;;;;6.25;4.25;;;;;;;;;;4994052;28;20021;-70
2021/06/26 12:40:17;;;;;;;7.43;4.82;;;;;;;;;;4994958;28;20028;-73
2021/06/26 12:43:10;;;;;;;9.98;4.82;;;;;;;;;;4995132;28;20081;-70
2021/06/26 12:45:38;;;;;;;8.20;5.05;;;;;;;;;;4990031;28;20026;-71
2021/06/26 12:48:09;;;;;;;8.13;5.00;;;;;;;;;;4999685;28;20018;-70
2021/06/26 12:51:26;;;;;;;6.18;4.38;;;;;;;;;;4989896;28;20030;-70
2021/06/26 12:53:47;;;;;;;13.02;5.57;;;;;;;;;;4987141;28;20502;-70
2021/06/26 12:56:16;;;;;;;7.15;4.60;;;;;;;;;;4989849;28;20125;-73
2021/06/26 12:58:58;;;;;;;5.82;4.05;;;;;;;;;;4992319;28;21186;-70
2021/06/26 13:01:39;;;;;;;9.40;4.75;;;;;;;;;;4989232;28;20030;-70
2021/06/26 13:04:05;;;;;;;6.43;4.50;;;;;;;;;;4995152;28;20026;-71
2021/06/26 13:06:31;;;;;;;8.02;4.82;;;;;;;;;;4988785;28;20062;-72
2021/06/26 13:08:57;;;;;;;9.35;5.15;;;;;;;;;;4990753;28;20131;-71
2021/06/26 13:11:34;;;;;;;6.10;4.00;;;;;;;;;;4989915;28;20063;-70
2021/06/26 13:14:15;;;;;;;10.20;4.60;;;;;;;;;;4993531;28;20014;-70
2021/06/26 13:16:41;;;;;;;6.40;4.10;;;;;;;;;;4988354;28;20394;-70
2021/06/26 13:19:08;;;;;;;6.15;4.57;;;;;;;;;;4992438;28;20022;-70
2021/06/26 13:21:33;;;;;;;6.80;3.90;;;;;;;;;;4993036;28;20063;-70
2021/06/26 13:23:59;;;;;;;10.40;4.88;;;;;;;;;;5000791;28;20467;-70
2021/06/26 13:26:25;;;;;;;9.27;4.80;;;;;;;;;;4990232;28;20011;-69
2021/06/26 13:28:51;;;;;;;6.68;4.20;;;;;;;;;;4983077;28;20072;-70
2021/06/26 13:31:17;;;;;;;7.55;3.45;;;;;;;;;;4987973;28;20502;-70
2021/06/26 13:33:42;;;;;;;4.85;3.92;;;;;;;;;;4985717;28;20022;-70
2021/06/26 13:36:07;;;;;;;5.35;4.15;;;;;;;;;;4989525;28;20022;-71
2021/06/26 13:38:32;;;;;;;5.13;3.73;;;;;;;;;;4989756;28;20030;-69
2021/06/26 13:40:58;;;;;;;5.43;3.88;;;;;;;;;;4988331;28;20019;-70
2021/06/26 13:43:23;;;;;;;5.57;3.87;;;;;;;;;;4988993;28;20014;-70
2021/06/26 13:45:48;;;;;;;7.20;4.37;;;;;;;;;;4987122;28;20026;-71
2021/06/26 13:48:14;;;;;;;5.27;4.70;;;;;;;;;;4994219;28;20018;-70
2021/06/26 13:50:40;;;;;;;8.55;4.40;;;;;;;;;;4995170;28;20757;-69
2021/06/26 13:53:05;;;;;;;5.57;3.70;;;;;;;;;;4990996;28;20144;-70
2021/06/26 13:55:30;;;;;;;6.72;3.78;;;;;;;;;;4989781;28;20027;-69
2021/06/26 13:57:55;;;;;;;8.10;3.90;;;;;;;;;;4989346;28;20026;-71
2021/06/26 14:00:21;;;;;;;8.57;4.57;;;;;;;;;;4987277;28;20026;-69
2021/06/26 14:02:46;;;;;;;10.43;4.75;;;;;;;;;;4985330;28;20297;-70
2021/06/26 14:05:11;;;;;;;6.70;4.00;;;;;;;;;;4989716;28;20551;-69
2021/06/26 14:07:40;;;;;;;11.45;4.10;;;;;;;;;;4990391;28;20034;-69
2021/06/26 14:10:06;;;;;;;5.25;3.80;;;;;;;;;;4989230;28;20028;-69
2021/06/26 14:12:31;;;;;;;4.53;3.00;;;;;;;;;;4989496;28;20060;-69
2021/06/26 14:14:56;;;;;;;7.73;3.87;;;;;;;;;;4989848;28;20030;-70
2021/06/26 14:17:21;;;;;;;5.18;3.78;;;;;;;;;;4990275;28;20270;-70
2021/06/26 14:19:46;;;;;;;5.23;3.10;;;;;;;;;;4989919;28;20023;-71
2021/06/26 14:22:12;;;;;;;5.33;3.60;;;;;;;;;;4990067;28;20027;-69